createdAt,value
2018-11-07T00:00:26.595Z,10.60
2018-11-07T00:03:01.716Z,10.50
2018-11-07T00:05:33.195Z,10.50
2018-11-07T00:08:14.916Z,10.60
2018-11-07T00:10:46.189Z,10.60
2018-11-07T00:13:17.551Z,10.60
2018-11-07T00:18:48.397Z,10.30
2018-11-07T00:27:16.197Z,9.80
2018-11-07T00:29:58.387Z,9.70
2018-11-07T00:32:29.635Z,9.50
2018-11-07T00:38:14.813Z,9.40
2018-11-07T00:40:46.886Z,9.30
2018-11-07T00:46:10.976Z,9.10
2018-11-07T00:48:42.597Z,9.00
2018-11-07T00:51:14.282Z,8.90
2018-11-07T00:53:46.047Z,8.80
2018-11-07T00:56:28.471Z,8.80
2018-11-07T00:59:00.050Z,8.80
2018-11-07T01:01:31.670Z,8.90
2018-11-07T01:04:03.619Z,8.90
2018-11-07T01:06:35.666Z,9.00
2018-11-07T01:09:12.097Z,9.00
2018-11-07T01:11:44.585Z,9.10
2018-11-07T01:17:18.763Z,9.30
2018-11-07T01:19:50.434Z,9.30
2018-11-07T01:25:25.232Z,9.30
2018-11-07T01:30:59.848Z,9.30
2018-11-07T01:33:31.549Z,9.30
2018-11-07T01:36:03.083Z,9.30
2018-11-07T01:38:34.800Z,9.40
2018-11-07T01:44:08.751Z,9.50
2018-11-07T01:46:40.854Z,9.60
2018-11-07T01:58:11.745Z,9.80
2018-11-07T02:00:44.528Z,9.80
2018-11-07T02:06:19.406Z,9.70
2018-11-07T02:08:51.949Z,9.70
2018-11-07T02:11:23.660Z,9.60
2018-11-07T02:13:55.588Z,9.50
2018-11-07T02:16:27.131Z,9.40
2018-11-07T02:19:02.612Z,9.30
2018-11-07T02:21:36.220Z,9.20
2018-11-07T02:24:07.938Z,9.10
2018-11-07T02:32:29.324Z,8.80
2018-11-07T02:35:01.261Z,8.80
2018-11-07T02:37:33.075Z,9.00
2018-11-07T02:40:04.434Z,9.20
2018-11-07T02:42:36.251Z,9.40
2018-11-07T02:45:08.081Z,9.40
2018-11-07T02:47:55.616Z,9.50
2018-11-07T02:50:27.577Z,9.60
2018-11-07T02:56:01.595Z,9.70
2018-11-07T03:01:40.957Z,9.60
2018-11-07T03:04:12.300Z,9.60
2018-11-07T03:06:43.983Z,9.60
2018-11-07T03:09:15.852Z,9.70
2018-11-07T03:11:47.703Z,9.70
2018-11-07T03:14:19.150Z,9.80
2018-11-07T03:16:51.960Z,9.90
2018-11-07T03:19:23.967Z,9.90
2018-11-07T03:22:07.605Z,9.80
2018-11-07T03:24:39.630Z,9.80
2018-11-07T03:27:11.382Z,9.80
2018-11-07T03:29:43.195Z,9.90
2018-11-07T03:32:14.707Z,10.00
2018-11-07T03:34:46.936Z,10.10
2018-11-07T03:37:18.543Z,10.10
2018-11-07T03:39:50.609Z,10.10
2018-11-07T03:42:22.250Z,10.20
2018-11-07T03:44:54.368Z,10.30
2018-11-07T03:47:26.726Z,10.40
2018-11-07T03:49:58.605Z,10.40
2018-11-07T03:52:30.052Z,10.40
2018-11-07T03:55:01.569Z,10.40
2018-11-07T04:00:36.771Z,10.50
2018-11-07T04:03:08.226Z,10.40
2018-11-07T04:05:40.338Z,10.40
2018-11-07T04:16:59.813Z,10.40
2018-11-07T04:19:31.796Z,10.40
2018-11-07T04:25:25.389Z,10.40
2018-11-07T04:27:56.876Z,10.40
2018-11-07T04:30:29.163Z,10.50
2018-11-07T04:35:53.485Z,10.50
2018-11-07T04:38:25.129Z,10.50
2018-11-07T04:40:56.877Z,10.60
2018-11-07T04:46:30.639Z,10.50
2018-11-07T04:49:02.043Z,10.50
2018-11-07T04:51:33.345Z,10.40
2018-11-07T04:54:05.046Z,10.40
2018-11-07T04:56:37.254Z,10.50
2018-11-07T04:59:08.827Z,10.40
2018-11-07T05:01:40.379Z,10.40
2018-11-07T05:04:12.073Z,10.40
2018-11-07T05:06:43.484Z,10.30
2018-11-07T05:09:14.895Z,10.40
2018-11-07T05:11:46.918Z,10.40
2018-11-07T05:14:19.581Z,10.30
2018-11-07T05:16:51.484Z,10.40
2018-11-07T05:19:22.813Z,10.40
2018-11-07T05:21:55.153Z,10.50
2018-11-07T05:24:26.590Z,10.40
2018-11-07T05:26:58.195Z,10.50
2018-11-07T05:29:29.743Z,10.50
2018-11-07T05:32:01.968Z,10.50
2018-11-07T05:34:33.712Z,10.50
2018-11-07T05:37:05.453Z,10.50
2018-11-07T05:39:38.189Z,10.50
2018-11-07T05:42:10.024Z,10.40
2018-11-07T05:44:41.641Z,10.40
2018-11-07T05:47:12.966Z,10.40
2018-11-07T05:49:44.556Z,10.40
2018-11-07T05:52:15.939Z,10.50
2018-11-07T05:54:47.461Z,10.50
2018-11-07T05:57:19.087Z,10.50
2018-11-07T05:59:50.709Z,10.50
2018-11-07T06:02:22.075Z,10.60
2018-11-07T06:04:53.673Z,10.50
2018-11-07T06:07:25.125Z,10.50
2018-11-07T06:09:56.765Z,10.50
2018-11-07T06:12:28.377Z,10.50
2018-11-07T06:15:00.497Z,10.50
2018-11-07T06:20:35.221Z,10.60
2018-11-07T06:23:06.643Z,10.60
2018-11-07T06:25:38.569Z,10.50
2018-11-07T06:28:09.958Z,10.50
2018-11-07T06:30:41.370Z,10.60
2018-11-07T06:33:12.937Z,10.50
2018-11-07T06:35:44.481Z,10.60
2018-11-07T06:38:16.264Z,10.50
2018-11-07T06:40:47.645Z,10.40
2018-11-07T06:43:18.992Z,10.40
2018-11-07T06:45:51.177Z,10.50
2018-11-07T06:48:22.715Z,10.40
2018-11-07T06:50:53.937Z,10.30
2018-11-07T06:53:25.528Z,10.40
2018-11-07T06:55:56.858Z,10.30
2018-11-07T06:58:28.298Z,10.30
2018-11-07T07:00:59.634Z,10.20
2018-11-07T07:03:31.348Z,10.10
2018-11-07T07:06:02.945Z,10.10
2018-11-07T07:08:34.410Z,10.10
2018-11-07T07:11:06.125Z,10.10
2018-11-07T07:13:38.021Z,10.10
2018-11-07T07:16:10.618Z,10.00
2018-11-07T07:27:31.177Z,10.00
2018-11-07T07:30:04.496Z,10.00
2018-11-07T07:32:36.702Z,10.00
2018-11-07T07:35:08.601Z,9.90
2018-11-07T07:37:40.420Z,9.90
2018-11-07T07:40:14.639Z,10.00
2018-11-07T07:42:47.088Z,10.00
2018-11-07T07:45:19.960Z,10.00
2018-11-07T07:47:51.687Z,10.00
2018-11-07T07:50:23.678Z,10.00
2018-11-07T07:52:55.565Z,10.00
2018-11-07T07:55:27.278Z,10.00
2018-11-07T07:57:58.706Z,10.00
2018-11-07T08:00:30.408Z,9.90
2018-11-07T08:03:02.435Z,9.90
2018-11-07T08:05:35.246Z,9.90
2018-11-07T08:08:08.394Z,9.90
2018-11-07T08:10:41.324Z,9.90
2018-11-07T08:13:14.687Z,10.00
2018-11-07T08:15:46.543Z,9.90
2018-11-07T08:18:18.056Z,9.90
2018-11-07T08:20:49.687Z,9.90
2018-11-07T08:23:21.237Z,9.80
2018-11-07T08:25:52.941Z,9.80
2018-11-07T08:28:25.318Z,9.70
2018-11-07T08:30:57.204Z,9.70
2018-11-07T08:33:28.700Z,9.60
2018-11-07T08:36:00.241Z,9.60
2018-11-07T08:38:31.896Z,9.60
2018-11-07T08:41:03.556Z,9.60
2018-11-07T08:43:35.053Z,9.60
2018-11-07T08:46:06.909Z,9.60
2018-11-07T08:48:38.765Z,9.60
2018-11-07T08:51:10.609Z,9.60
2018-11-07T08:53:42.600Z,9.60
2018-11-07T08:56:13.978Z,9.50
2018-11-07T08:58:45.520Z,9.50
2018-11-07T09:04:20.194Z,9.60
2018-11-07T09:06:51.763Z,9.60
2018-11-07T09:09:42.774Z,9.60
2018-11-07T09:12:14.302Z,9.60
2018-11-07T09:14:46.053Z,9.60
2018-11-07T09:17:17.625Z,9.60
2018-11-07T09:19:48.976Z,9.60
2018-11-07T09:22:20.471Z,9.50
2018-11-07T09:24:52.016Z,9.50
2018-11-07T09:27:23.714Z,9.50
2018-11-07T09:29:55.034Z,9.40
2018-11-07T09:32:26.318Z,9.40
2018-11-07T09:34:57.905Z,9.40
2018-11-07T09:37:29.303Z,9.40
2018-11-07T09:40:00.820Z,9.40
2018-11-07T09:42:32.046Z,9.40
2018-11-07T09:45:03.564Z,9.40
2018-11-07T09:47:35.457Z,9.30
2018-11-07T09:50:08.924Z,9.30
2018-11-07T09:52:40.732Z,9.30
2018-11-07T09:55:14.160Z,9.30
2018-11-07T09:57:45.796Z,9.30
2018-11-07T10:00:19.159Z,9.30
2018-11-07T10:02:50.712Z,9.30
2018-11-07T10:05:22.851Z,9.30
2018-11-07T10:07:54.150Z,9.20
2018-11-07T10:10:26.158Z,9.20
2018-11-07T10:12:57.551Z,9.20
2018-11-07T10:15:29.137Z,9.20
2018-11-07T10:18:00.756Z,9.20
2018-11-07T10:20:32.214Z,9.20
2018-11-07T10:23:03.676Z,9.20
2018-11-07T10:25:35.042Z,9.20
2018-11-07T10:28:07.098Z,9.20
2018-11-07T10:30:38.194Z,9.20
2018-11-07T10:33:09.684Z,9.20
2018-11-07T10:35:41.298Z,9.20
2018-11-07T10:38:13.434Z,9.20
2018-11-07T10:40:45.241Z,9.20
2018-11-07T10:43:16.809Z,9.30
2018-11-07T10:45:48.537Z,9.20
2018-11-07T10:51:22.579Z,9.20
2018-11-07T10:59:59.820Z,9.10
2018-11-07T11:02:35.485Z,9.10
2018-11-07T11:05:07.279Z,9.00
2018-11-07T11:07:38.763Z,9.10
2018-11-07T11:10:10.893Z,9.00
2018-11-07T11:12:42.745Z,9.00
2018-11-07T11:15:14.379Z,9.00
2018-11-07T11:17:46.040Z,9.00
2018-11-07T11:20:17.381Z,8.90
2018-11-07T11:22:48.757Z,9.00
2018-11-07T11:25:20.339Z,9.00
2018-11-07T11:27:51.761Z,9.00
2018-11-07T11:30:23.097Z,9.00
2018-11-07T11:32:54.574Z,9.00
2018-11-07T11:35:26.089Z,9.00
2018-11-07T11:37:57.808Z,9.00
2018-11-07T11:40:29.194Z,9.00
2018-11-07T11:43:01.256Z,9.00
2018-11-07T11:45:32.770Z,9.00
2018-11-07T11:48:04.150Z,8.90
2018-11-07T11:50:35.688Z,8.90
2018-11-07T11:53:07.166Z,8.80
2018-11-07T11:55:38.301Z,8.80
2018-11-07T11:58:09.637Z,8.80
2018-11-07T12:00:41.465Z,8.80
2018-11-07T12:03:13.295Z,8.80
2018-11-07T12:05:44.889Z,8.80
2018-11-07T12:08:16.942Z,8.80
2018-11-07T12:10:48.674Z,8.80
2018-11-07T12:13:20.274Z,8.80
2018-11-07T12:15:52.076Z,8.80
2018-11-07T12:18:23.538Z,8.80
2018-11-07T12:20:55.234Z,8.80
2018-11-07T12:23:27.059Z,8.80
2018-11-07T12:25:58.796Z,8.80
2018-11-07T12:28:30.846Z,8.80
2018-11-07T12:31:11.273Z,8.70
2018-11-07T12:33:42.545Z,8.70
2018-11-07T12:36:13.970Z,8.80
2018-11-07T12:38:45.658Z,8.80
2018-11-07T12:41:17.241Z,8.80
2018-11-07T12:43:49.040Z,8.80
2018-11-07T12:46:20.679Z,8.90
2018-11-07T12:48:52.877Z,8.90
2018-11-07T12:51:24.817Z,8.90
2018-11-07T12:53:56.558Z,9.00
2018-11-07T12:56:28.617Z,9.00
2018-11-07T12:59:00.531Z,9.10
2018-11-07T13:01:32.374Z,9.10
2018-11-07T13:04:04.644Z,9.20
2018-11-07T13:06:36.123Z,9.20
2018-11-07T13:09:09.969Z,9.30
2018-11-07T13:11:42.320Z,9.30
2018-11-07T13:14:13.813Z,9.40
2018-11-07T13:16:45.533Z,9.50
2018-11-07T13:19:16.888Z,9.50
2018-11-07T13:21:49.054Z,9.50
2018-11-07T13:24:20.872Z,9.50
2018-11-07T13:26:52.475Z,9.50
2018-11-07T13:29:24.247Z,9.40
2018-11-07T13:31:55.625Z,9.50
2018-11-07T13:34:28.137Z,9.60
2018-11-07T13:36:59.647Z,9.60
2018-11-07T13:39:31.274Z,9.60
2018-11-07T13:42:02.879Z,9.60
2018-11-07T13:44:34.160Z,9.60
2018-11-07T13:47:05.883Z,9.60
2018-11-07T13:49:37.498Z,9.60
2018-11-07T13:52:25.433Z,9.60
2018-11-07T13:58:14.596Z,9.60
2018-11-07T14:03:43.373Z,9.70
2018-11-07T14:06:15.009Z,9.70
2018-11-07T14:08:46.411Z,9.70
2018-11-07T14:14:14.130Z,9.60
2018-11-07T14:16:45.637Z,9.60
2018-11-07T14:22:14.063Z,9.70
2018-11-07T14:24:45.683Z,9.70
2018-11-07T14:27:17.247Z,9.70
2018-11-07T14:29:50.197Z,9.70
2018-11-07T14:35:24.256Z,9.70
2018-11-07T14:40:57.975Z,9.70
2018-11-07T14:43:29.319Z,9.80
2018-11-07T14:46:00.672Z,9.80
2018-11-07T14:48:33.334Z,9.80
2018-11-07T15:02:48.880Z,9.60
2018-11-07T15:05:21.125Z,9.60
2018-11-07T15:07:52.433Z,9.60
2018-11-07T15:13:26.669Z,9.70
2018-11-07T15:19:00.739Z,9.80
2018-11-07T15:24:35.286Z,9.80
2018-11-07T15:27:06.535Z,9.80
2018-11-07T15:32:52.142Z,9.90
2018-11-07T15:35:30.837Z,10.00
2018-11-07T15:38:02.097Z,10.00
2018-11-07T15:43:36.190Z,10.10
2018-11-07T15:46:07.489Z,10.10
2018-11-07T15:48:38.871Z,10.10
2018-11-07T15:51:13.488Z,10.20
2018-11-07T15:53:45.214Z,10.30
2018-11-07T15:56:16.676Z,10.30
2018-11-07T15:58:48.120Z,10.30
2018-11-07T16:01:20.111Z,10.30
2018-11-07T16:03:52.231Z,10.30
2018-11-07T16:09:26.432Z,10.20
2018-11-07T16:11:58.236Z,10.30
2018-11-07T16:14:29.795Z,10.40
2018-11-07T16:17:01.292Z,10.60
2018-11-07T16:19:32.775Z,10.70
2018-11-07T16:22:04.231Z,10.70
2018-11-07T16:24:35.606Z,10.60
2018-11-07T16:27:07.276Z,10.50
2018-11-07T16:29:38.762Z,10.30
2018-11-07T16:32:10.162Z,10.30
2018-11-07T16:34:45.253Z,10.40
2018-11-07T16:37:32.544Z,10.50
2018-11-07T16:40:04.091Z,10.60
2018-11-07T16:42:35.602Z,10.80
2018-11-07T16:45:08.058Z,10.80
2018-11-07T16:47:39.546Z,10.70
2018-11-07T16:50:12.289Z,10.60
2018-11-07T16:52:43.812Z,10.50
2018-11-07T16:55:15.425Z,10.40
2018-11-07T16:57:46.941Z,10.40
2018-11-07T17:00:19.952Z,10.50
2018-11-07T17:02:52.065Z,10.40
2018-11-07T17:05:23.293Z,10.30
2018-11-07T17:07:54.850Z,10.30
2018-11-07T17:10:26.502Z,10.40
2018-11-07T17:12:57.961Z,10.70
2018-11-07T17:15:29.315Z,11.10
2018-11-07T17:24:00.991Z,11.90
2018-11-07T17:26:32.727Z,11.60
2018-11-07T17:32:07.241Z,11.40
2018-11-07T17:40:33.962Z,12.50
2018-11-07T17:43:06.070Z,12.50
2018-11-07T17:45:37.742Z,11.90
2018-11-07T17:51:11.697Z,11.30
2018-11-07T17:53:43.045Z,11.10
2018-11-07T17:56:14.736Z,11.00
2018-11-07T17:58:46.184Z,11.00
2018-11-07T18:01:19.167Z,11.20
2018-11-07T18:03:52.121Z,11.20
2018-11-07T18:06:23.754Z,11.10
2018-11-07T18:11:58.688Z,11.30
2018-11-07T18:14:33.682Z,11.60
2018-11-07T18:17:05.692Z,11.80
2018-11-07T18:19:37.442Z,11.80
2018-11-07T18:22:08.812Z,11.40
2018-11-07T18:36:56.154Z,10.60
2018-11-07T18:39:27.841Z,10.60
2018-11-07T18:41:59.550Z,10.40
2018-11-07T18:44:31.381Z,10.80
2018-11-07T18:47:02.830Z,11.40
2018-11-07T18:49:34.552Z,11.70
2018-11-07T18:52:06.344Z,11.20
2018-11-07T18:54:37.780Z,11.00
2018-11-07T18:57:09.460Z,10.70
2018-11-07T18:59:41.328Z,10.30
2018-11-07T19:02:13.031Z,10.10
2018-11-07T19:04:44.651Z,9.80
2018-11-07T19:07:15.957Z,9.30
2018-11-07T19:09:47.396Z,9.00
2018-11-07T19:12:19.043Z,8.90
2018-11-07T19:14:50.408Z,9.00
2018-11-07T19:17:21.781Z,9.20
2018-11-07T19:22:56.664Z,9.60
2018-11-07T19:25:28.187Z,9.80
2018-11-07T19:27:59.467Z,9.70
2018-11-07T19:30:31.854Z,9.60
2018-11-07T19:33:03.120Z,9.60
2018-11-07T19:35:34.493Z,9.70
2018-11-07T19:38:05.995Z,9.50
2018-11-07T19:40:37.525Z,9.40
2018-11-07T19:43:09.298Z,9.50
2018-11-07T19:45:41.374Z,9.50
2018-11-07T19:48:12.560Z,9.60
2018-11-07T19:53:47.095Z,9.30
2018-11-07T19:56:18.503Z,8.90
2018-11-07T20:01:53.104Z,8.40
2018-11-07T20:07:27.056Z,8.00
2018-11-07T20:09:58.249Z,7.80
2018-11-07T20:12:30.250Z,7.80
2018-11-07T20:17:57.163Z,8.00
2018-11-07T20:20:28.784Z,8.10
2018-11-07T20:23:00.616Z,8.40
2018-11-07T20:25:32.003Z,8.80
2018-11-07T20:28:03.555Z,8.90
2018-11-07T20:30:34.950Z,8.70
2018-11-07T20:33:06.443Z,8.50
2018-11-07T20:35:38.191Z,8.40
2018-11-07T20:38:10.034Z,8.30
2018-11-07T20:40:41.836Z,8.20
2018-11-07T20:43:13.441Z,8.20
2018-11-07T20:45:45.494Z,8.20
2018-11-07T20:48:17.111Z,8.10
2018-11-07T20:50:48.786Z,8.10
2018-11-07T20:53:37.128Z,8.10
2018-11-07T20:56:08.882Z,8.10
2018-11-07T20:58:41.732Z,8.10
2018-11-07T21:01:14.303Z,8.20
2018-11-07T21:06:49.029Z,8.20
2018-11-07T21:12:23.157Z,8.10
2018-11-07T21:17:58.030Z,8.00
2018-11-07T21:20:29.618Z,8.00
2018-11-07T21:23:01.552Z,8.00
2018-11-07T21:28:37.042Z,7.80
2018-11-07T21:37:15.874Z,6.90
2018-11-07T21:51:49.402Z,6.70
2018-11-07T21:54:24.354Z,6.70
2018-11-07T21:56:55.744Z,6.80
2018-11-07T21:59:27.193Z,6.90
2018-11-07T22:05:02.239Z,7.00
2018-11-07T22:07:33.731Z,7.10
2018-11-07T22:16:09.686Z,7.00
2018-11-07T22:27:49.765Z,6.80
2018-11-07T22:30:22.083Z,6.90
2018-11-07T22:41:52.269Z,6.90
2018-11-07T22:44:25.104Z,7.00
2018-11-07T22:46:56.834Z,7.10
2018-11-07T22:49:28.056Z,7.10
2018-11-07T22:51:59.704Z,7.10
2018-11-07T22:54:31.356Z,7.20
2018-11-07T22:57:02.670Z,7.20
2018-11-07T22:59:34.201Z,7.20
2018-11-07T23:02:05.692Z,7.20
2018-11-07T23:04:37.192Z,7.20
2018-11-07T23:07:09.039Z,7.20
2018-11-07T23:09:41.705Z,7.20
2018-11-07T23:12:13.287Z,7.20
2018-11-07T23:14:45.024Z,7.20
2018-11-07T23:17:16.722Z,7.20
2018-11-07T23:19:48.836Z,7.30
2018-11-07T23:22:20.987Z,7.20
2018-11-07T23:24:52.837Z,7.20
2018-11-07T23:30:27.644Z,7.10
2018-11-07T23:32:59.267Z,7.10
2018-11-07T23:35:31.910Z,7.10
2018-11-07T23:38:03.437Z,7.00
2018-11-07T23:40:34.904Z,7.10
2018-11-07T23:46:10.004Z,7.00
2018-11-07T23:48:41.851Z,7.00
2018-11-07T23:51:13.688Z,6.90
2018-11-07T23:53:45.473Z,6.90
2018-11-07T23:56:20.450Z,6.90
2018-11-07T23:58:52.265Z,6.90
